createdAt,value
2018-07-11T00:01:15.702Z,80.17
2018-07-11T00:03:48.911Z,81.01
2018-07-11T00:06:19.463Z,81.64
2018-07-11T00:08:48.737Z,83.05
2018-07-11T00:11:17.433Z,83.75
2018-07-11T00:13:47.117Z,84.58
2018-07-11T00:16:16.316Z,84.59
2018-07-11T00:18:45.029Z,83.97
2018-07-11T00:21:14.066Z,83.86
2018-07-11T00:23:43.269Z,83.47
2018-07-11T00:26:12.623Z,83.42
2018-07-11T00:28:41.257Z,83.23
2018-07-11T00:31:10.043Z,83.81
2018-07-11T00:33:38.892Z,83.78
2018-07-11T00:36:07.620Z,83.74
2018-07-11T00:38:36.857Z,83.98
2018-07-11T00:41:06.353Z,84.66
2018-07-11T00:43:35.451Z,84.54
2018-07-11T00:46:05.633Z,84.94
2018-07-11T00:48:35.187Z,84.73
2018-07-11T00:51:04.721Z,84.52
2018-07-11T00:53:35.906Z,84.44
2018-07-11T00:56:04.869Z,84.89
2018-07-11T00:58:36.344Z,84.03
2018-07-11T01:01:11.608Z,83.95
2018-07-11T01:03:49.423Z,84.41
2018-07-11T01:06:19.584Z,85.47
2018-07-11T01:08:50.999Z,86.80
2018-07-11T01:11:20.099Z,86.95
2018-07-11T01:13:49.471Z,87.24
2018-07-11T01:16:19.408Z,87.21
2018-07-11T01:18:51.494Z,87.42
2018-07-11T01:21:20.924Z,87.58
2018-07-11T01:23:49.667Z,88.76
2018-07-11T01:26:18.417Z,89.27
2018-07-11T01:28:47.588Z,89.30
2018-07-11T01:31:16.735Z,89.13
2018-07-11T01:33:46.088Z,88.93
2018-07-11T01:36:15.188Z,88.74
2018-07-11T01:38:43.994Z,89.00
2018-07-11T01:41:13.027Z,88.30
2018-07-11T01:43:41.999Z,88.63
2018-07-11T01:46:10.753Z,87.73
2018-07-11T01:48:39.454Z,87.19
2018-07-11T01:51:08.692Z,86.88
2018-07-11T01:53:38.069Z,86.64
2018-07-11T01:56:06.919Z,86.43
2018-07-11T01:58:35.717Z,86.68
2018-07-11T02:01:05.357Z,86.42
2018-07-11T02:03:34.640Z,86.69
2018-07-11T02:06:03.909Z,86.47
2018-07-11T02:08:33.310Z,86.29
2018-07-11T02:11:02.364Z,86.19
2018-07-11T02:13:31.772Z,85.29
2018-07-11T02:16:00.483Z,84.28
2018-07-11T02:18:30.397Z,84.03
2018-07-11T02:21:01.398Z,86.95
2018-07-11T02:23:38.138Z,87.86
2018-07-11T02:26:06.882Z,87.37
2018-07-11T02:28:35.568Z,86.83
2018-07-11T02:31:05.119Z,86.20
2018-07-11T02:33:33.852Z,86.63
2018-07-11T02:36:02.538Z,86.15
2018-07-11T02:38:31.306Z,85.25
2018-07-11T02:41:00.208Z,86.34
2018-07-11T02:43:29.118Z,85.94
2018-07-11T02:45:58.324Z,85.80
2018-07-11T02:48:27.050Z,85.96
2018-07-11T02:50:55.884Z,83.26
2018-07-11T02:53:25.217Z,83.54
2018-07-11T02:55:54.578Z,84.42
2018-07-11T02:58:23.399Z,84.04
2018-07-11T03:00:52.333Z,83.25
2018-07-11T03:03:21.302Z,82.93
2018-07-11T03:05:49.889Z,82.05
2018-07-11T03:08:19.002Z,82.97
2018-07-11T03:10:48.028Z,84.01
2018-07-11T03:13:20.662Z,84.24
2018-07-11T03:15:49.375Z,84.13
2018-07-11T03:18:18.294Z,83.33
2018-07-11T03:20:47.539Z,80.57
2018-07-11T03:23:16.665Z,79.85
2018-07-11T03:25:45.588Z,79.55
2018-07-11T03:28:14.268Z,80.04
2018-07-11T03:30:43.358Z,80.64
2018-07-11T03:33:12.339Z,80.41
2018-07-11T03:35:40.994Z,80.34
2018-07-11T03:38:09.963Z,80.30
2018-07-11T03:40:39.469Z,80.12
2018-07-11T03:43:09.205Z,80.08
2018-07-11T03:45:38.693Z,79.55
2018-07-11T03:48:08.128Z,79.30
2018-07-11T03:50:37.169Z,79.19
2018-07-11T03:53:05.969Z,78.98
2018-07-11T03:55:35.624Z,79.70
2018-07-11T03:58:04.673Z,79.66
2018-07-11T04:00:33.675Z,79.76
2018-07-11T04:03:02.873Z,78.93
2018-07-11T04:05:31.687Z,78.81
2018-07-11T04:08:00.717Z,79.04
2018-07-11T04:10:29.502Z,78.62
2018-07-11T04:13:00.998Z,78.68
2018-07-11T04:15:29.838Z,78.26
2018-07-11T04:17:58.493Z,78.44
2018-07-11T04:20:27.629Z,77.72
2018-07-11T04:22:56.794Z,77.90
2018-07-11T04:25:25.513Z,77.88
2018-07-11T04:27:54.464Z,77.88
2018-07-11T04:30:23.240Z,77.58
2018-07-11T04:32:51.949Z,77.67
2018-07-11T04:35:20.782Z,77.54
2018-07-11T04:37:50.317Z,77.20
2018-07-11T04:40:19.290Z,76.63
2018-07-11T04:42:48.873Z,77.05
2018-07-11T04:45:17.910Z,76.83
2018-07-11T04:47:47.320Z,77.08
2018-07-11T04:50:16.459Z,76.77
2018-07-11T04:52:45.665Z,76.05
2018-07-11T04:55:14.563Z,76.26
2018-07-11T04:57:44.154Z,76.14
2018-07-11T05:00:13.094Z,75.77
2018-07-11T05:02:42.064Z,76.11
2018-07-11T05:05:10.820Z,75.98
2018-07-11T05:07:40.123Z,75.77
2018-07-11T05:10:09.264Z,75.51
2018-07-11T05:12:37.948Z,75.86
2018-07-11T05:15:06.785Z,75.78
2018-07-11T05:17:36.006Z,75.70
2018-07-11T05:20:05.164Z,75.18
2018-07-11T05:22:33.805Z,75.35
2018-07-11T05:25:02.531Z,75.01
2018-07-11T05:27:31.789Z,75.49
2018-07-11T05:30:00.936Z,75.29
2018-07-11T05:32:30.540Z,75.10
2018-07-11T05:34:59.399Z,75.43
2018-07-11T05:37:28.177Z,75.68
2018-07-11T05:39:57.149Z,75.72
2018-07-11T05:42:26.510Z,75.62
2018-07-11T05:44:55.385Z,75.76
2018-07-11T05:47:24.379Z,74.97
2018-07-11T05:49:53.184Z,74.41
2018-07-11T05:52:22.161Z,74.31
2018-07-11T05:54:51.380Z,74.59
2018-07-11T05:57:21.491Z,74.08
2018-07-11T05:59:50.720Z,73.72
2018-07-11T06:02:19.554Z,74.17
2018-07-11T06:04:49.244Z,73.72
2018-07-11T06:07:18.093Z,74.40
2018-07-11T06:09:46.771Z,74.99
2018-07-11T06:12:15.985Z,74.87
2018-07-11T06:14:44.838Z,74.90
2018-07-11T06:17:13.668Z,75.76
2018-07-11T06:19:42.680Z,75.82
2018-07-11T06:22:11.408Z,75.62
2018-07-11T06:24:40.194Z,75.94
2018-07-11T06:27:08.880Z,75.71
2018-07-11T06:29:37.641Z,76.37
2018-07-11T06:32:06.385Z,76.95
2018-07-11T06:34:35.173Z,76.58
2018-07-11T06:37:04.236Z,76.76
2018-07-11T06:39:33.405Z,78.28
2018-07-11T06:42:02.641Z,78.26
2018-07-11T06:44:31.582Z,79.08
2018-07-11T06:47:04.395Z,78.81
2018-07-11T06:49:33.222Z,80.24
2018-07-11T06:52:03.167Z,80.62
2018-07-11T06:54:32.011Z,81.23
2018-07-11T06:57:00.801Z,81.27
2018-07-11T06:59:29.978Z,81.89
2018-07-11T07:01:59.371Z,83.42
2018-07-11T07:04:28.669Z,85.09
2018-07-11T07:06:57.916Z,85.98
2018-07-11T07:09:26.680Z,85.92
2018-07-11T07:11:55.540Z,86.09
2018-07-11T07:14:24.612Z,85.57
2018-07-11T07:16:53.503Z,83.73
2018-07-11T07:19:23.017Z,81.77
2018-07-11T07:21:52.210Z,78.91
2018-07-11T07:24:21.106Z,77.96
2018-07-11T07:26:49.885Z,76.10
2018-07-11T07:29:18.876Z,72.76
2018-07-11T07:31:48.127Z,71.73
2018-07-11T07:34:17.486Z,67.25
2018-07-11T07:36:46.590Z,66.20
2018-07-11T07:39:16.818Z,64.19
2018-07-11T07:41:46.712Z,64.26
2018-07-11T07:44:15.390Z,63.33
2018-07-11T07:46:49.456Z,61.58
2018-07-11T07:49:18.587Z,60.91
2018-07-11T07:51:47.905Z,61.26
2018-07-11T07:54:16.942Z,56.75
2018-07-11T07:56:45.921Z,53.50
2018-07-11T07:59:15.336Z,48.53
2018-07-11T08:01:44.590Z,43.19
2018-07-11T08:04:13.726Z,42.84
2018-07-11T08:06:43.137Z,43.71
2018-07-11T08:09:11.977Z,44.03
2018-07-11T08:11:40.634Z,45.57
2018-07-11T08:14:09.352Z,43.95
2018-07-11T08:16:39.145Z,44.15
2018-07-11T08:19:08.077Z,41.51
2018-07-11T08:21:37.411Z,42.50
2018-07-11T08:24:17.291Z,42.95
2018-07-11T08:26:57.676Z,43.05
2018-07-11T08:29:53.840Z,44.61
2018-07-11T08:32:41.467Z,49.39
2018-07-11T08:35:21.680Z,52.18
2018-07-11T08:40:11.266Z,56.14
2018-07-11T08:42:51.742Z,55.96
2018-07-11T08:45:42.775Z,56.59
2018-07-11T08:48:20.551Z,55.75
2018-07-11T08:50:59.158Z,54.26
2018-07-11T08:53:38.977Z,47.82
2018-07-11T08:56:18.372Z,40.51
2018-07-11T08:59:17.067Z,39.01
2018-07-11T09:01:56.215Z,42.71
2018-07-11T09:04:35.992Z,45.03
2018-07-11T09:07:48.301Z,48.99
2018-07-11T09:11:36.876Z,49.86
2018-07-11T09:16:23.345Z,51.34
2018-07-11T09:19:38.430Z,51.39
2018-07-11T09:22:15.484Z,53.87
2018-07-11T09:24:45.504Z,55.20
2018-07-11T09:27:14.636Z,55.60
2018-07-11T09:29:44.385Z,57.16
2018-07-11T09:32:13.755Z,56.05
2018-07-11T09:34:43.296Z,55.43
2018-07-11T09:37:12.852Z,53.60
2018-07-11T09:39:42.363Z,54.86
2018-07-11T09:42:11.185Z,54.51
2018-07-11T09:44:40.180Z,52.05
2018-07-11T09:47:14.637Z,51.24
2018-07-11T09:49:43.867Z,50.22
2018-07-11T09:52:12.766Z,49.89
2018-07-11T09:54:41.695Z,47.05
2018-07-11T09:57:11.192Z,47.17
2018-07-11T09:59:40.566Z,48.32
2018-07-11T10:02:09.721Z,49.16
2018-07-11T10:04:38.591Z,49.66
2018-07-11T10:07:07.443Z,49.40
2018-07-11T10:09:36.377Z,50.74
2018-07-11T10:12:05.793Z,48.33
2018-07-11T10:14:35.226Z,46.98
2018-07-11T10:17:04.069Z,46.59
2018-07-11T10:19:32.830Z,46.02
2018-07-11T10:22:01.552Z,45.76
2018-07-11T10:24:30.685Z,46.68
2018-07-11T10:26:59.416Z,45.09
2018-07-11T10:29:28.591Z,43.12
2018-07-11T10:31:57.445Z,38.53
2018-07-11T10:34:26.377Z,31.81
2018-07-11T10:36:56.211Z,27.58
2018-07-11T10:39:25.526Z,26.76
2018-07-11T10:41:54.583Z,27.43
2018-07-11T10:44:23.395Z,25.94
2018-07-11T10:46:56.929Z,25.08
2018-07-11T10:49:25.877Z,23.20
2018-07-11T10:51:54.781Z,21.72
2018-07-11T10:54:23.677Z,24.95
2018-07-11T10:56:52.634Z,28.66
2018-07-11T10:59:21.713Z,32.10
2018-07-11T11:01:50.651Z,32.42
2018-07-11T11:04:23.067Z,32.95
2018-07-11T11:06:52.171Z,33.97
2018-07-11T11:09:21.145Z,35.85
2018-07-11T11:11:50.049Z,37.14
2018-07-11T11:14:18.772Z,37.57
2018-07-11T11:16:47.533Z,35.83
2018-07-11T11:19:16.380Z,36.16
2018-07-11T11:21:45.436Z,38.56
2018-07-11T11:24:14.357Z,39.62
2018-07-11T11:26:43.327Z,39.46
2018-07-11T11:29:12.192Z,40.78
2018-07-11T11:31:41.032Z,41.49
2018-07-11T11:34:09.911Z,42.88
2018-07-11T11:36:39.176Z,43.47
2018-07-11T11:39:08.018Z,44.16
2018-07-11T11:41:37.694Z,44.86
2018-07-11T11:44:07.387Z,45.73
2018-07-11T11:46:36.928Z,45.49
2018-07-11T11:49:07.191Z,46.29
2018-07-11T11:51:36.418Z,47.16
2018-07-11T11:54:05.762Z,47.14
2018-07-11T11:56:34.541Z,46.59
2018-07-11T11:59:04.311Z,46.26
2018-07-11T12:01:33.556Z,45.05
2018-07-11T12:04:02.589Z,43.62
2018-07-11T12:06:31.861Z,42.61
2018-07-11T12:09:00.987Z,40.22
2018-07-11T12:11:29.807Z,38.82
2018-07-11T12:13:58.622Z,37.22
2018-07-11T12:16:27.735Z,37.68
2018-07-11T12:18:56.812Z,38.04
2018-07-11T12:21:26.073Z,37.93
2018-07-11T12:23:55.335Z,38.42
2018-07-11T12:26:24.457Z,38.55
2018-07-11T12:28:53.482Z,38.76
2018-07-11T12:31:22.352Z,38.93
2018-07-11T12:33:51.221Z,39.74
2018-07-11T12:36:20.402Z,41.06
2018-07-11T12:38:53.642Z,40.98
2018-07-11T12:41:22.861Z,41.51
2018-07-11T12:43:52.267Z,41.69
2018-07-11T12:46:21.179Z,40.70
2018-07-11T12:48:55.261Z,40.45
2018-07-11T12:51:24.382Z,41.61
2018-07-11T12:53:53.116Z,41.30
2018-07-11T12:56:22.052Z,41.68
2018-07-11T12:58:51.213Z,41.96
2018-07-11T13:01:20.157Z,43.21
2018-07-11T13:03:48.902Z,43.53
2018-07-11T13:06:18.207Z,43.26
2018-07-11T13:08:47.184Z,42.54
2018-07-11T13:11:16.273Z,43.12
2018-07-11T13:13:45.333Z,43.81
2018-07-11T13:16:15.080Z,43.66
2018-07-11T13:18:44.088Z,45.03
2018-07-11T13:21:12.954Z,44.88
2018-07-11T13:23:41.716Z,45.58
2018-07-11T13:26:10.704Z,45.56
2018-07-11T13:28:40.137Z,46.43
2018-07-11T13:31:09.307Z,46.56
2018-07-11T13:33:38.351Z,45.44
2018-07-11T13:36:07.659Z,44.58
2018-07-11T13:38:36.821Z,45.24
2018-07-11T13:41:06.104Z,45.17
2018-07-11T13:43:35.358Z,45.74
2018-07-11T13:46:04.460Z,45.32
2018-07-11T13:48:33.778Z,44.21
2018-07-11T13:51:02.917Z,44.37
2018-07-11T13:53:32.192Z,42.56
2018-07-11T13:56:01.618Z,41.68
2018-07-11T13:58:30.822Z,40.68
2018-07-11T14:00:59.984Z,40.23
2018-07-11T14:03:28.911Z,39.70
2018-07-11T14:05:58.278Z,39.42
2018-07-11T14:08:27.169Z,39.28
2018-07-11T14:10:56.080Z,39.81
2018-07-11T14:13:25.127Z,39.15
2018-07-11T14:15:54.457Z,40.00
2018-07-11T14:18:23.377Z,40.35
2018-07-11T14:20:52.597Z,40.12
2018-07-11T14:23:32.524Z,39.18
2018-07-11T14:26:01.875Z,40.24
2018-07-11T14:28:32.039Z,39.79
2018-07-11T14:31:01.353Z,39.72
2018-07-11T14:33:32.387Z,40.75
2018-07-11T14:36:02.237Z,40.23
2018-07-11T14:38:31.582Z,39.45
2018-07-11T14:41:02.336Z,39.50
2018-07-11T14:43:31.532Z,38.51
2018-07-11T14:46:00.478Z,39.75
2018-07-11T14:48:30.512Z,39.68
2018-07-11T14:51:00.932Z,39.68
2018-07-11T14:53:30.202Z,40.37
2018-07-11T14:55:59.212Z,41.06
2018-07-11T14:58:28.151Z,42.47
2018-07-11T15:00:56.996Z,41.26
2018-07-11T15:03:26.617Z,39.94
2018-07-11T15:05:56.219Z,39.45
2018-07-11T15:08:25.155Z,39.92
2018-07-11T15:10:53.849Z,41.96
2018-07-11T15:13:23.853Z,41.34
2018-07-11T15:15:53.301Z,41.16
2018-07-11T15:18:22.288Z,39.89
2018-07-11T15:20:51.214Z,40.54
2018-07-11T15:23:19.950Z,41.79
2018-07-11T15:25:48.715Z,41.92
2018-07-11T15:28:17.842Z,41.47
2018-07-11T15:30:46.983Z,41.74
2018-07-11T15:33:16.067Z,42.32
2018-07-11T15:35:44.888Z,42.93
2018-07-11T15:38:14.047Z,43.02
2018-07-11T15:40:43.376Z,43.35
2018-07-11T15:43:12.461Z,45.12
2018-07-11T15:45:41.733Z,44.61
2018-07-11T15:48:11.383Z,44.74
2018-07-11T15:50:40.895Z,44.84
2018-07-11T15:53:09.796Z,45.63
2018-07-11T15:55:38.628Z,44.54
2018-07-11T15:58:11.859Z,44.82
2018-07-11T16:00:41.962Z,46.08
2018-07-11T16:03:12.831Z,45.42
2018-07-11T16:05:45.489Z,45.00
2018-07-11T16:08:19.636Z,45.22
2018-07-11T16:10:55.435Z,44.99
2018-07-11T16:13:24.929Z,44.79
2018-07-11T16:15:54.487Z,43.68
2018-07-11T16:18:23.417Z,42.97
2018-07-11T16:20:52.324Z,43.34
2018-07-11T16:23:21.373Z,44.03
2018-07-11T16:25:51.020Z,43.32
2018-07-11T16:28:19.986Z,45.00
2018-07-11T16:30:49.269Z,44.95
2018-07-11T16:33:18.457Z,45.50
2018-07-11T16:35:47.122Z,43.77
2018-07-11T16:38:15.924Z,42.73
2018-07-11T16:40:44.922Z,43.04
2018-07-11T16:43:14.752Z,42.50
2018-07-11T16:45:43.929Z,42.13
2018-07-11T16:48:12.854Z,42.40
2018-07-11T16:50:42.033Z,43.36
2018-07-11T16:53:11.246Z,43.35
2018-07-11T16:55:40.748Z,42.67
2018-07-11T16:58:10.983Z,43.17
2018-07-11T17:00:40.304Z,44.00
2018-07-11T17:03:11.552Z,44.15
2018-07-11T17:05:57.803Z,45.09
2018-07-11T17:08:30.083Z,47.15
2018-07-11T17:11:30.415Z,48.16
2018-07-11T17:14:06.549Z,49.05
2018-07-11T17:16:43.567Z,49.06
2018-07-11T17:19:16.568Z,48.55
2018-07-11T17:21:47.200Z,48.33
2018-07-11T17:24:18.314Z,48.19
2018-07-11T17:26:48.617Z,48.52
2018-07-11T17:29:22.939Z,48.28
2018-07-11T17:31:59.482Z,47.83
2018-07-11T17:34:28.403Z,47.53
2018-07-11T17:37:01.193Z,48.15
2018-07-11T17:39:41.823Z,47.40
2018-07-11T17:42:12.012Z,47.84
2018-07-11T17:44:45.057Z,48.24
2018-07-11T17:47:15.109Z,48.85
2018-07-11T17:49:49.164Z,48.39
2018-07-11T17:52:17.886Z,49.02
2018-07-11T17:54:53.522Z,47.82
2018-07-11T17:57:36.438Z,48.12
2018-07-11T18:00:08.416Z,48.52
2018-07-11T18:02:48.848Z,49.06
2018-07-11T18:05:26.124Z,49.47
2018-07-11T18:07:56.641Z,48.78
2018-07-11T18:10:33.993Z,48.93
2018-07-11T18:13:15.907Z,51.40
2018-07-11T18:15:52.848Z,50.70
2018-07-11T18:18:32.800Z,50.41
2018-07-11T18:21:13.297Z,49.04
2018-07-11T18:24:18.864Z,48.77
2018-07-11T18:27:04.525Z,49.45
2018-07-11T18:29:45.138Z,49.39
2018-07-11T18:32:21.487Z,49.69
2018-07-11T18:35:02.970Z,50.64
2018-07-11T18:38:24.124Z,50.49
2018-07-11T18:41:17.093Z,51.78
2018-07-11T18:43:54.129Z,53.81
2018-07-11T18:46:36.529Z,53.70
2018-07-11T18:49:20.506Z,53.35
2018-07-11T18:51:55.926Z,55.19
2018-07-11T18:55:09.409Z,55.09
2018-07-11T18:58:49.978Z,56.03
2018-07-11T19:01:31.081Z,58.46
2018-07-11T19:04:09.743Z,58.25
2018-07-11T19:06:49.409Z,59.57
2018-07-11T19:09:59.782Z,61.03
2018-07-11T19:12:34.519Z,61.83
2018-07-11T19:15:10.866Z,62.15
2018-07-11T19:17:47.659Z,63.34
2018-07-11T19:21:31.448Z,63.97
2018-07-11T19:24:08.058Z,64.29
2018-07-11T19:26:46.079Z,64.46
2018-07-11T19:29:53.161Z,64.87
2018-07-11T19:32:30.992Z,65.57
2018-07-11T19:36:10.850Z,66.77
2018-07-11T19:38:46.014Z,68.10
2018-07-11T19:41:25.950Z,68.18
2018-07-11T19:48:20.830Z,68.41
2018-07-11T19:51:12.589Z,70.67
2018-07-11T19:54:02.900Z,71.14
2018-07-11T19:56:42.936Z,71.47
2018-07-11T19:59:12.032Z,71.42
2018-07-11T20:01:40.974Z,71.57
2018-07-11T20:04:11.187Z,72.69
2018-07-11T20:06:40.381Z,73.28
2018-07-11T20:09:10.400Z,73.30
2018-07-11T20:11:40.735Z,74.47
2018-07-11T20:14:09.926Z,74.59
2018-07-11T20:16:38.934Z,74.67
2018-07-11T20:19:08.572Z,74.67
2018-07-11T20:21:37.445Z,75.65
2018-07-11T20:24:06.198Z,75.96
2018-07-11T20:26:35.295Z,76.30
2018-07-11T20:29:04.259Z,76.44
2018-07-11T20:31:33.123Z,76.36
2018-07-11T20:34:02.634Z,76.17
2018-07-11T20:36:32.084Z,76.05
2018-07-11T20:39:01.168Z,76.47
2018-07-11T20:41:30.181Z,76.51
2018-07-11T20:43:59.579Z,76.36
2018-07-11T20:46:28.970Z,76.77
2018-07-11T20:48:58.070Z,77.54
2018-07-11T20:51:30.702Z,78.23
2018-07-11T20:53:59.596Z,77.85
2018-07-11T20:56:28.621Z,77.85
2018-07-11T20:59:08.568Z,76.91
2018-07-11T21:01:48.254Z,77.00
2018-07-11T21:07:02.005Z,77.74
2018-07-11T21:12:42.618Z,78.93
2018-07-11T21:17:24.193Z,79.41
2018-07-11T21:19:52.992Z,80.09
2018-07-11T21:22:21.929Z,81.24
2018-07-11T21:24:51.183Z,82.80
2018-07-11T21:27:20.467Z,82.63
2018-07-11T21:29:49.845Z,82.84
2018-07-11T21:32:18.799Z,82.66
2018-07-11T21:34:47.508Z,82.49
2018-07-11T21:37:16.324Z,81.26
2018-07-11T21:39:45.840Z,80.85
2018-07-11T21:42:14.829Z,80.71
2018-07-11T21:44:43.956Z,80.69
2018-07-11T21:47:13.829Z,80.17
2018-07-11T21:49:42.846Z,80.88
2018-07-11T21:52:11.624Z,82.54
2018-07-11T21:54:40.463Z,84.17
2018-07-11T21:57:09.469Z,84.14
2018-07-11T21:59:38.667Z,83.99
2018-07-11T22:02:07.948Z,84.53
2018-07-11T22:04:37.102Z,84.49
2018-07-11T22:07:06.335Z,84.72
2018-07-11T22:09:35.244Z,85.52
2018-07-11T22:12:04.758Z,85.17
2018-07-11T22:14:33.640Z,85.21
2018-07-11T22:17:12.236Z,85.81
2018-07-11T22:19:39.600Z,86.41
2018-07-11T22:22:07.743Z,86.44
2018-07-11T22:24:35.118Z,86.29
2018-07-11T22:27:02.449Z,85.99
2018-07-11T22:29:30.410Z,86.07
2018-07-11T22:31:57.779Z,86.32
2018-07-11T22:34:25.085Z,86.67
2018-07-11T22:36:53.085Z,86.64
2018-07-11T22:39:20.589Z,87.00
2018-07-11T22:41:47.914Z,87.44
2018-07-11T22:44:15.300Z,87.07
2018-07-11T22:46:42.604Z,87.12
2018-07-11T22:49:10.686Z,87.59
2018-07-11T22:51:38.038Z,87.73
2018-07-11T22:54:05.365Z,88.01
2018-07-11T22:56:32.664Z,88.11
2018-07-11T22:59:00.665Z,88.17
2018-07-11T23:01:27.943Z,88.10
2018-07-11T23:03:55.359Z,88.58
2018-07-11T23:06:22.676Z,88.66
2018-07-11T23:08:49.971Z,89.11
2018-07-11T23:11:17.256Z,89.13
2018-07-11T23:13:45.345Z,89.06
2018-07-11T23:16:12.624Z,89.15
2018-07-11T23:18:39.893Z,90.00
2018-07-11T23:21:07.223Z,89.91
2018-07-11T23:23:34.480Z,89.97
2018-07-11T23:26:01.792Z,90.10
2018-07-11T23:28:29.111Z,90.07
2018-07-11T23:30:56.436Z,90.42
2018-07-11T23:33:24.279Z,90.61
2018-07-11T23:35:51.691Z,90.78
2018-07-11T23:38:19.785Z,90.76
2018-07-11T23:40:48.089Z,91.03
2018-07-11T23:43:15.359Z,90.60
2018-07-11T23:45:43.606Z,90.77
2018-07-11T23:48:11.111Z,90.87
2018-07-11T23:50:38.377Z,90.50
2018-07-11T23:53:05.655Z,90.10
2018-07-11T23:55:32.945Z,90.38
2018-07-11T23:58:00.280Z,89.85
